Time;durP1;ratioP1;P1;durP2;ratioP2;P2;SDS_P1;SDS_P2;PMS_P1;PMS_P2;Temp;Humidity;BMP_temperature;BMP_pressure;BME280_temperature;BME280_humidity;BME280_pressure;Samples;Min_cycle;Max_cycle;Signal;HPM_P1;HPM_P2
2021/07/05 00:00:22;;;;;;;6.93;6.33;;;21.20;98.30;;;;;;5133790;23;20979;-82
2021/07/05 00:02:38;;;;;;;6.83;6.23;;;21.10;98.30;;;;;;5086014;23;20483;-81
2021/07/05 01:26:12;;;;;;;7.30;6.70;;;20.10;98.30;;;;;;4801962;24;20540;-82
2021/07/05 01:28:15;;;;;;;9.63;6.73;;;20.20;98.30;;;;;;4924946;24;20579;-81
2021/07/05 01:30:21;;;;;;;8.43;7.63;;;20.30;98.30;;;;;;4926571;24;20500;-81
2021/07/05 01:32:24;;;;;;;7.50;6.90;;;20.40;98.30;;;;;;4934242;24;20490;-81
2021/07/05 01:34:27;;;;;;;8.67;7.80;;;20.40;98.30;;;;;;5019088;23;20453;-81
2021/07/05 01:36:31;;;;;;;7.87;6.90;;;20.50;98.30;;;;;;5051007;23;20444;-82
2021/07/05 01:38:35;;;;;;;9.60;8.40;;;20.50;98.30;;;;;;5050658;23;20966;-82
2021/07/05 01:40:38;;;;;;;8.20;7.43;;;20.30;98.30;;;;;;5064014;23;20426;-82
2021/07/05 01:42:42;;;;;;;8.50;7.70;;;20.20;98.30;;;;;;5118334;23;20432;-82
2021/07/05 01:44:46;;;;;;;8.23;7.43;;;20.20;98.30;;;;;;5121108;23;20426;-83
2021/07/05 01:46:48;;;;;;;8.20;7.50;;;20.10;98.30;;;;;;5121336;23;21009;-82
2021/07/05 01:48:52;;;;;;;9.50;7.57;;;20.00;98.30;;;;;;5120533;23;20426;-82
2021/07/05 01:50:55;;;;;;;8.50;6.83;;;19.90;98.30;;;;;;5128610;23;20442;-82
2021/07/05 01:52:58;;;;;;;8.10;7.37;;;19.90;98.30;;;;;;5120220;23;20485;-81
2021/07/05 01:55:04;;;;;;;7.47;6.80;;;19.90;98.30;;;;;;5126512;23;20418;-82
2021/07/05 01:57:24;;;;;;;8.27;7.47;;;19.80;98.30;;;;;;5118563;23;20432;-82
2021/07/05 01:59:27;;;;;;;9.60;8.10;;;19.80;98.30;;;;;;5126767;23;20437;-81
2021/07/05 02:01:30;;;;;;;8.37;7.53;;;19.80;98.30;;;;;;5136896;23;20422;-81
2021/07/05 02:03:33;;;;;;;8.57;7.67;;;19.80;98.30;;;;;;5128653;23;20453;-81
2021/07/05 02:05:36;;;;;;;8.53;7.00;;;19.70;98.30;;;;;;5136312;23;20414;-81
2021/07/05 02:07:40;;;;;;;8.63;7.70;;;19.50;98.30;;;;;;5127200;23;20492;-81
2021/07/05 02:09:44;;;;;;;8.73;7.93;;;19.60;98.30;;;;;;5118579;23;20743;-81
2021/07/05 02:11:48;;;;;;;8.77;8.07;;;19.60;98.30;;;;;;5118776;23;20577;-81
2021/07/05 02:13:52;;;;;;;8.70;7.90;;;19.50;98.30;;;;;;5119027;23;20454;-81
2021/07/05 02:15:58;;;;;;;8.63;7.80;;;19.50;98.30;;;;;;5129363;23;20432;-81
2021/07/05 02:18:01;;;;;;;9.23;7.53;;;19.50;98.30;;;;;;5129177;23;20740;-81
2021/07/05 02:20:06;;;;;;;8.50;7.60;;;19.50;98.30;;;;;;5120831;23;20426;-81
2021/07/05 02:22:10;;;;;;;9.10;8.20;;;19.50;98.30;;;;;;5130115;23;20493;-82
2021/07/05 02:24:13;;;;;;;9.00;8.10;;;19.50;98.30;;;;;;5120213;23;21014;-82
2021/07/05 02:26:16;;;;;;;10.07;9.07;;;19.40;98.30;;;;;;5120778;23;20433;-81
2021/07/05 02:28:25;;;;;;;9.47;8.60;;;19.20;98.30;;;;;;5119907;23;20434;-81
2021/07/05 02:30:30;;;;;;;9.03;8.10;;;19.10;98.30;;;;;;5120411;23;20440;-82
2021/07/05 02:32:33;;;;;;;8.60;7.80;;;19.10;98.30;;;;;;5128043;23;20483;-82
2021/07/05 02:34:36;;;;;;;8.87;8.07;;;19.10;98.30;;;;;;5128397;23;20790;-82
2021/07/05 02:36:39;;;;;;;8.33;7.53;;;19.10;98.30;;;;;;5121456;23;20434;-82
2021/07/05 02:38:42;;;;;;;9.27;8.27;;;19.00;98.30;;;;;;5120756;23;20434;-82
2021/07/05 02:40:46;;;;;;;9.03;8.13;;;19.00;98.30;;;;;;5120836;23;20440;-82
2021/07/05 02:42:50;;;;;;;9.40;8.13;;;18.90;98.30;;;;;;5128999;23;20837;-82
2021/07/05 02:44:54;;;;;;;8.10;7.40;;;18.80;98.30;;;;;;5128763;23;20432;-82
2021/07/05 02:46:57;;;;;;;7.93;7.23;;;18.80;98.30;;;;;;5120511;23;20426;-82
2021/07/05 02:49:00;;;;;;;9.70;8.90;;;18.70;98.30;;;;;;5128252;23;21123;-82
2021/07/05 02:51:06;;;;;;;8.90;7.90;;;18.70;98.30;;;;;;5127080;23;20964;-81
2021/07/05 02:53:11;;;;;;;15.40;8.47;;;18.60;98.30;;;;;;5119839;23;20461;-81
2021/07/05 02:55:15;;;;;;;8.60;7.70;;;18.60;98.30;;;;;;5127487;23;20746;-81
2021/07/05 02:57:30;;;;;;;8.20;7.33;;;18.60;98.30;;;;;;5128089;23;20453;-82
2021/07/05 02:59:32;;;;;;;8.47;7.67;;;18.60;98.30;;;;;;5119410;23;20501;-82
2021/07/05 03:01:37;;;;;;;7.90;7.20;;;18.70;98.30;;;;;;5126778;23;20420;-81
2021/07/05 03:03:40;;;;;;;8.03;7.23;;;18.70;98.30;;;;;;5117886;23;20996;-81
2021/07/05 03:05:43;;;;;;;8.23;7.43;;;18.80;98.30;;;;;;5117479;23;20497;-81
2021/07/05 03:07:47;;;;;;;8.13;7.33;;;18.80;98.30;;;;;;5126392;23;20424;-81
2021/07/05 03:09:50;;;;;;;8.90;8.00;;;18.70;98.30;;;;;;5127595;23;20791;-82
2021/07/05 03:11:52;;;;;;;8.87;7.83;;;18.70;98.30;;;;;;5127170;23;20436;-82
2021/07/05 03:13:55;;;;;;;8.27;7.30;;;18.80;98.30;;;;;;5127801;23;20448;-82
2021/07/05 03:15:58;;;;;;;9.60;8.37;;;18.80;98.30;;;;;;5119026;23;20433;-82
2021/07/05 03:18:03;;;;;;;8.73;7.93;;;18.80;98.30;;;;;;5125516;23;20433;-82
2021/07/05 03:20:08;;;;;;;8.90;8.00;;;18.80;98.30;;;;;;5115104;23;20426;-82
2021/07/05 03:22:11;;;;;;;8.10;7.30;;;18.80;98.30;;;;;;5123742;23;20422;-82
2021/07/05 03:24:14;;;;;;;8.90;7.87;;;18.70;98.30;;;;;;5117569;23;20600;-82
2021/07/05 03:26:17;;;;;;;8.60;7.80;;;18.80;98.30;;;;;;5126813;23;20895;-82
2021/07/05 03:28:20;;;;;;;8.70;7.87;;;18.80;98.30;;;;;;5118500;23;20440;-82
2021/07/05 03:30:24;;;;;;;9.00;7.80;;;18.80;98.30;;;;;;5126597;23;20441;-82
2021/07/05 03:32:27;;;;;;;10.60;8.43;;;18.80;98.30;;;;;;5127104;23;20414;-82
2021/07/05 03:34:31;;;;;;;9.10;8.23;;;18.90;98.30;;;;;;5118466;23;20456;-82
2021/07/05 03:36:34;;;;;;;8.97;8.17;;;18.90;98.30;;;;;;5118217;23;20792;-82
2021/07/05 03:38:37;;;;;;;8.43;7.70;;;18.90;98.30;;;;;;5116644;23;20762;-82
2021/07/05 03:40:40;;;;;;;9.23;8.23;;;18.90;98.30;;;;;;5116243;23;20432;-81
2021/07/05 03:42:44;;;;;;;9.57;8.47;;;18.80;98.30;;;;;;5127279;23;20823;-81
2021/07/05 03:44:47;;;;;;;9.13;8.30;;;18.70;98.30;;;;;;5117685;23;20430;-81
2021/07/05 03:46:50;;;;;;;11.60;9.47;;;18.70;98.30;;;;;;5126529;23;20733;-82
2021/07/05 03:48:54;;;;;;;13.60;10.50;;;18.60;98.30;;;;;;5117339;23;20426;-82
2021/07/05 03:50:58;;;;;;;12.40;10.70;;;18.50;98.30;;;;;;5125566;23;20417;-82
2021/07/05 03:53:01;;;;;;;14.13;11.17;;;18.50;98.30;;;;;;5126503;23;20426;-81
2021/07/05 03:55:05;;;;;;;13.27;11.77;;;18.60;98.30;;;;;;5120008;23;20430;-81
2021/07/05 03:57:21;;;;;;;12.53;11.27;;;18.60;98.30;;;;;;5118250;23;20434;-81
2021/07/05 03:59:24;;;;;;;12.93;11.53;;;18.60;98.30;;;;;;5127314;23;20413;-81
2021/07/05 04:01:27;;;;;;;14.20;12.63;;;18.60;98.30;;;;;;5120679;23;20739;-81
2021/07/05 04:03:30;;;;;;;12.83;11.53;;;18.60;98.30;;;;;;5128426;23;20445;-82
2021/07/05 04:05:33;;;;;;;14.70;13.20;;;18.70;98.30;;;;;;5128745;23;20497;-82
2021/07/05 04:07:38;;;;;;;15.33;12.90;;;18.70;98.30;;;;;;5119651;23;20430;-81
2021/07/05 04:09:42;;;;;;;13.80;11.90;;;18.70;98.30;;;;;;5118828;23;20422;-81
2021/07/05 04:11:45;;;;;;;14.40;12.53;;;18.70;98.30;;;;;;5127615;23;20455;-81
2021/07/05 04:13:48;;;;;;;16.80;12.87;;;18.70;98.30;;;;;;5119088;23;20454;-81
2021/07/05 04:15:51;;;;;;;15.03;12.90;;;18.80;98.30;;;;;;5128240;23;20421;-81
2021/07/05 04:17:54;;;;;;;14.20;12.70;;;18.90;98.30;;;;;;5119822;23;20608;-81
2021/07/05 04:19:57;;;;;;;14.40;12.87;;;18.90;98.30;;;;;;5119667;23;20440;-81
2021/07/05 04:22:00;;;;;;;16.60;14.47;;;18.80;98.30;;;;;;5119949;23;20436;-82
2021/07/05 04:24:05;;;;;;;16.00;14.23;;;18.80;98.30;;;;;;5119882;23;20524;-82
2021/07/05 04:26:08;;;;;;;15.20;13.57;;;18.70;98.30;;;;;;5119943;23;20829;-82
2021/07/05 04:28:11;;;;;;;16.63;14.30;;;18.60;98.30;;;;;;5120450;23;20504;-82
2021/07/05 04:30:16;;;;;;;18.20;15.50;;;18.70;98.30;;;;;;5129420;23;20432;-82
2021/07/05 04:32:19;;;;;;;17.97;15.93;;;18.70;98.30;;;;;;5128582;23;20452;-82
2021/07/05 04:34:23;;;;;;;18.30;15.60;;;18.60;98.30;;;;;;5127266;23;20776;-82
2021/07/05 04:36:26;;;;;;;17.70;15.83;;;18.70;98.30;;;;;;5117830;23;20440;-82
2021/07/05 04:38:29;;;;;;;23.37;18.03;;;18.70;98.30;;;;;;5116537;23;20433;-82
2021/07/05 04:40:35;;;;;;;19.37;17.37;;;18.60;98.30;;;;;;5117737;23;20462;-82
2021/07/05 04:42:39;;;;;;;18.87;16.43;;;18.60;98.30;;;;;;5118086;23;20414;-82
2021/07/05 04:44:42;;;;;;;20.57;17.07;;;18.60;98.30;;;;;;5116688;23;20998;-83
2021/07/05 04:46:48;;;;;;;22.40;17.77;;;18.60;98.30;;;;;;5117307;23;20517;-82
2021/07/05 04:48:54;;;;;;;18.13;16.00;;;18.70;98.30;;;;;;5117740;23;20419;-81
2021/07/05 04:50:57;;;;;;;19.83;16.77;;;18.80;98.30;;;;;;5116720;23;20421;-82
2021/07/05 04:53:00;;;;;;;21.03;17.23;;;18.80;98.30;;;;;;5116372;23;20786;-82
2021/07/05 04:55:04;;;;;;;20.67;17.53;;;18.80;98.30;;;;;;5124691;23;20429;-83
2021/07/05 04:57:10;;;;;;;18.93;16.93;;;18.70;98.30;;;;;;5116585;23;20434;-83
2021/07/05 04:59:14;;;;;;;23.70;19.27;;;18.60;98.30;;;;;;5124680;23;20898;-82
2021/07/05 05:01:17;;;;;;;23.23;19.40;;;18.70;98.30;;;;;;5116749;23;20566;-82
2021/07/05 05:03:20;;;;;;;22.07;18.27;;;18.60;98.30;;;;;;5116639;23;20533;-82
2021/07/05 05:05:23;;;;;;;19.70;17.60;;;18.60;98.30;;;;;;5124621;23;20428;-82
2021/07/05 05:07:26;;;;;;;21.87;18.00;;;18.70;98.30;;;;;;5124702;23;20504;-82
2021/07/05 05:09:29;;;;;;;20.20;18.03;;;18.70;98.30;;;;;;5116202;23;20513;-82
2021/07/05 05:11:32;;;;;;;22.63;19.67;;;18.70;98.30;;;;;;5124483;23;20425;-82
2021/07/05 05:13:36;;;;;;;21.07;18.90;;;18.70;98.30;;;;;;5124773;23;20446;-82
2021/07/05 05:15:40;;;;;;;18.93;16.67;;;18.70;98.30;;;;;;5117112;23;20919;-82
2021/07/05 05:17:43;;;;;;;19.40;17.40;;;18.80;98.30;;;;;;5124809;23;20437;-82
2021/07/05 05:19:46;;;;;;;19.07;17.07;;;18.70;98.30;;;;;;5125310;23;20502;-82
2021/07/05 05:21:49;;;;;;;20.60;17.67;;;18.70;98.30;;;;;;5117479;23;20430;-82
2021/07/05 05:23:52;;;;;;;21.30;17.50;;;18.60;98.30;;;;;;5116600;23;20473;-82
2021/07/05 05:25:55;;;;;;;21.43;17.67;;;18.70;98.30;;;;;;5116694;23;20811;-83
2021/07/05 05:27:58;;;;;;;19.40;17.30;;;18.70;98.30;;;;;;5125239;23;20954;-82
2021/07/05 05:30:06;;;;;;;17.00;15.20;;;18.60;98.30;;;;;;5125387;23;20472;-83
2021/07/05 05:32:17;;;;;;;20.33;16.90;;;18.60;98.30;;;;;;5125847;23;20436;-83
2021/07/05 05:34:20;;;;;;;20.07;17.60;;;18.60;98.30;;;;;;5125766;23;20536;-82
2021/07/05 05:36:23;;;;;;;21.77;17.70;;;18.50;98.30;;;;;;5117618;23;20990;-82
2021/07/05 05:38:26;;;;;;;23.50;17.70;;;18.60;98.30;;;;;;5116706;23;20430;-82
2021/07/05 05:40:30;;;;;;;19.53;17.40;;;18.50;98.30;;;;;;5117597;23;20430;-82
2021/07/05 05:42:33;;;;;;;18.67;16.50;;;18.50;98.30;;;;;;5117301;23;20426;-83
2021/07/05 05:44:36;;;;;;;18.07;16.10;;;18.60;98.30;;;;;;5117228;23;20449;-83
2021/07/05 05:46:40;;;;;;;22.13;16.60;;;18.70;98.30;;;;;;5117180;23;20521;-83
2021/07/05 05:48:44;;;;;;;20.23;16.23;;;18.80;98.30;;;;;;5116991;23;20775;-83
2021/07/05 05:50:47;;;;;;;20.27;16.10;;;18.90;98.30;;;;;;5125559;23;20509;-82
2021/07/05 05:52:50;;;;;;;20.90;16.57;;;18.80;98.30;;;;;;5125525;23;20437;-82
2021/07/05 05:54:53;;;;;;;16.23;14.63;;;18.90;98.30;;;;;;5117128;23;20444;-82
2021/07/05 05:56:55;;;;;;;20.70;16.63;;;19.00;98.30;;;;;;5125772;23;20417;-83
2021/07/05 05:59:00;;;;;;;18.90;16.27;;;18.90;98.30;;;;;;5116927;23;20433;-82
2021/07/05 06:01:04;;;;;;;19.17;15.10;;;18.90;98.30;;;;;;5117615;23;20426;-82
2021/07/05 06:03:08;;;;;;;18.80;16.87;;;18.90;98.30;;;;;;5117202;23;20449;-82
2021/07/05 06:05:11;;;;;;;16.10;14.40;;;18.90;98.30;;;;;;5117601;23;20743;-83
2021/07/05 06:07:14;;;;;;;17.83;16.10;;;18.90;98.30;;;;;;5117339;23;20509;-82
2021/07/05 06:09:17;;;;;;;19.43;16.30;;;18.90;98.30;;;;;;5124276;23;20418;-83
2021/07/05 06:11:21;;;;;;;20.80;16.87;;;18.80;98.30;;;;;;5125462;23;20430;-80
2021/07/05 06:13:24;;;;;;;19.60;17.50;;;18.80;98.30;;;;;;5116753;23;20545;-82
2021/07/05 06:15:27;;;;;;;20.30;17.03;;;18.80;98.30;;;;;;5125480;23;20435;-82
2021/07/05 06:17:35;;;;;;;18.70;16.00;;;18.80;98.30;;;;;;5117685;23;20414;-82
2021/07/05 06:19:40;;;;;;;17.77;15.80;;;18.80;98.30;;;;;;5124812;23;20426;-83
2021/07/05 06:21:43;;;;;;;18.93;16.97;;;18.90;98.30;;;;;;5116570;23;20476;-83
2021/07/05 06:23:46;;;;;;;18.60;16.60;;;18.90;98.30;;;;;;5118139;23;20476;-80
2021/07/05 06:25:49;;;;;;;16.93;15.20;;;19.00;98.30;;;;;;5118606;23;20438;-82
2021/07/05 06:27:53;;;;;;;16.60;14.90;;;19.00;98.30;;;;;;5118246;23;20498;-80
2021/07/05 06:29:56;;;;;;;21.27;17.43;;;18.90;98.30;;;;;;5117049;23;20516;-81
2021/07/05 06:31:59;;;;;;;17.33;15.50;;;18.90;98.30;;;;;;5116094;23;20457;-81
2021/07/05 06:34:02;;;;;;;17.77;15.93;;;19.00;98.30;;;;;;5115613;23;20504;-79
2021/07/05 06:36:06;;;;;;;16.40;14.90;;;19.00;98.30;;;;;;5116416;23;20434;-80
2021/07/05 06:38:09;;;;;;;14.47;13.00;;;18.90;98.30;;;;;;5115635;23;20434;-81
2021/07/05 06:40:13;;;;;;;20.50;13.97;;;18.90;98.30;;;;;;5116495;23;20425;-81
2021/07/05 06:42:16;;;;;;;17.87;15.07;;;18.80;98.30;;;;;;5116225;23;20433;-81
2021/07/05 06:44:23;;;;;;;15.57;14.07;;;18.70;98.30;;;;;;5115445;23;20457;-81
2021/07/05 06:46:26;;;;;;;16.50;14.80;;;18.70;98.30;;;;;;5125086;23;20441;-82
2021/07/05 06:48:31;;;;;;;16.73;14.67;;;18.60;98.30;;;;;;5116012;23;20900;-81
2021/07/05 06:50:34;;;;;;;19.70;16.27;;;18.70;98.30;;;;;;5125013;23;20409;-82
2021/07/05 06:52:39;;;;;;;18.60;16.60;;;18.70;98.30;;;;;;5115794;23;20440;-81
2021/07/05 06:54:42;;;;;;;17.30;15.20;;;18.70;98.30;;;;;;5115826;23;20445;-82
2021/07/05 06:56:45;;;;;;;16.47;14.63;;;18.70;98.30;;;;;;5117800;23;20465;-82
2021/07/05 06:58:47;;;;;;;17.13;15.43;;;18.70;98.30;;;;;;5124680;23;20422;-82
2021/07/05 07:00:50;;;;;;;16.83;14.50;;;18.70;98.30;;;;;;5124282;23;20422;-81
2021/07/05 07:02:54;;;;;;;18.07;14.90;;;18.70;98.30;;;;;;5116615;23;20817;-82
2021/07/05 07:04:57;;;;;;;16.37;14.37;;;18.70;98.30;;;;;;5123538;23;20799;-81
2021/07/05 07:07:00;;;;;;;16.33;14.63;;;18.60;98.30;;;;;;5117848;23;20436;-82
2021/07/05 07:09:05;;;;;;;14.80;13.30;;;18.60;98.30;;;;;;5117431;23;20453;-80
2021/07/05 07:11:07;;;;;;;16.10;14.40;;;18.60;98.30;;;;;;5117389;23;20726;-82
2021/07/05 07:13:11;;;;;;;14.57;13.07;;;18.60;98.30;;;;;;5119640;23;20489;-82
2021/07/05 07:15:23;;;;;;;15.63;13.90;;;18.70;98.30;;;;;;5129570;23;20875;-82
2021/07/05 07:17:29;;;;;;;16.50;12.23;;;18.70;98.30;;;;;;5120975;23;20441;-80
2021/07/05 07:19:31;;;;;;;14.53;12.80;;;18.80;98.30;;;;;;5120850;23;20472;-82
2021/07/05 07:21:35;;;;;;;13.87;12.47;;;18.70;98.30;;;;;;5121317;23;20426;-82
2021/07/05 07:23:38;;;;;;;13.30;11.63;;;18.90;98.30;;;;;;5121080;23;20480;-81
2021/07/05 07:25:42;;;;;;;14.70;12.17;;;18.90;98.30;;;;;;5128911;23;20438;-82
2021/07/05 07:27:45;;;;;;;13.23;11.83;;;19.10;98.30;;;;;;5129565;23;20437;-82
2021/07/05 07:29:49;;;;;;;13.10;11.30;;;19.00;98.30;;;;;;5120858;23;20433;-82
2021/07/05 07:31:53;;;;;;;14.37;11.83;;;19.00;98.30;;;;;;5129516;23;20418;-82
2021/07/05 07:33:56;;;;;;;13.17;11.57;;;19.00;98.30;;;;;;5120954;23;20457;-82
2021/07/05 07:36:02;;;;;;;14.83;12.57;;;19.00;98.30;;;;;;5129985;23;20422;-81
2021/07/05 07:38:05;;;;;;;11.83;10.23;;;19.00;98.30;;;;;;5122318;23;20410;-82
2021/07/05 07:40:15;;;;;;;13.67;11.73;;;19.00;98.30;;;;;;5121839;23;20429;-80
2021/07/05 07:42:20;;;;;;;16.20;11.17;;;19.00;98.30;;;;;;5121448;23;20424;-81
2021/07/05 07:44:22;;;;;;;12.10;10.87;;;19.00;98.30;;;;;;5120719;23;20458;-82
2021/07/05 07:46:25;;;;;;;13.47;11.10;;;19.00;98.30;;;;;;5120920;23;20422;-82
2021/07/05 07:48:29;;;;;;;12.53;11.30;;;19.10;98.30;;;;;;5122216;23;20520;-81
2021/07/05 07:50:32;;;;;;;14.50;11.77;;;19.20;98.30;;;;;;5127751;23;20492;-79
2021/07/05 07:52:36;;;;;;;12.30;11.10;;;19.20;98.30;;;;;;5125328;23;21027;-82
2021/07/05 07:54:39;;;;;;;12.73;11.53;;;19.20;98.30;;;;;;5123776;23;20484;-82
2021/07/05 07:56:42;;;;;;;14.47;11.83;;;19.10;98.30;;;;;;5131501;23;20729;-82
2021/07/05 07:58:46;;;;;;;12.90;11.70;;;19.10;98.30;;;;;;5123223;23;20430;-81
2021/07/05 08:00:49;;;;;;;12.20;11.00;;;19.10;98.30;;;;;;5130799;23;20418;-81
2021/07/05 08:02:52;;;;;;;11.90;10.80;;;19.20;98.30;;;;;;5128092;23;20449;-82
2021/07/05 08:04:55;;;;;;;12.77;11.47;;;19.20;98.30;;;;;;5129384;23;20426;-81
2021/07/05 08:06:58;;;;;;;11.93;10.73;;;19.20;98.30;;;;;;5120937;23;20433;-81
2021/07/05 08:09:03;;;;;;;14.20;11.93;;;19.20;98.30;;;;;;5119131;23;20430;-82
2021/07/05 08:11:06;;;;;;;13.13;11.60;;;19.30;98.30;;;;;;5128876;23;20421;-81
2021/07/05 08:13:09;;;;;;;12.40;11.10;;;19.30;98.30;;;;;;5118848;23;21026;-82
2021/07/05 08:15:14;;;;;;;14.33;11.23;;;19.30;98.30;;;;;;5130576;23;20437;-82
2021/07/05 08:17:22;;;;;;;12.00;10.80;;;19.50;98.30;;;;;;5120168;23;20409;-82
2021/07/05 08:19:25;;;;;;;12.10;11.00;;;19.70;98.30;;;;;;5121397;23;20529;-82
2021/07/05 08:21:28;;;;;;;12.80;11.40;;;19.70;98.30;;;;;;5121530;23;20916;-82
2021/07/05 08:23:31;;;;;;;13.43;11.90;;;19.50;98.30;;;;;;5130204;23;20472;-82
2021/07/05 08:25:34;;;;;;;12.67;11.00;;;19.40;98.30;;;;;;5121760;23;20442;-82
2021/07/05 08:27:37;;;;;;;11.80;10.60;;;19.40;98.30;;;;;;5123046;23;20476;-82
2021/07/05 08:29:40;;;;;;;11.00;9.90;;;19.50;98.30;;;;;;5121856;23;20462;-82
2021/07/05 08:31:45;;;;;;;10.67;9.57;;;19.60;98.30;;;;;;5121964;23;20468;-82
2021/07/05 08:33:50;;;;;;;11.80;10.60;;;19.90;98.30;;;;;;5121421;23;20500;-82
2021/07/05 08:35:53;;;;;;;11.60;10.23;;;20.30;98.30;;;;;;5122778;23;20419;-82
2021/07/05 08:37:56;;;;;;;13.07;11.10;;;20.50;98.30;;;;;;5121295;23;20487;-82
2021/07/05 08:39:59;;;;;;;11.27;9.87;;;20.50;98.30;;;;;;5122681;23;20436;-82
2021/07/05 08:42:02;;;;;;;10.80;9.70;;;20.20;98.30;;;;;;5122305;23;20986;-82
2021/07/05 08:44:07;;;;;;;11.60;10.40;;;20.30;98.30;;;;;;5121366;23;20455;-80
2021/07/05 08:46:12;;;;;;;11.13;9.90;;;20.20;98.30;;;;;;5130597;23;20524;-81
2021/07/05 08:48:17;;;;;;;10.90;9.90;;;20.20;98.30;;;;;;5131443;23;20407;-81
2021/07/05 08:50:21;;;;;;;10.63;9.63;;;20.20;98.30;;;;;;5121268;23;20433;-81
2021/07/05 08:52:24;;;;;;;13.73;10.10;;;20.30;98.30;;;;;;5129346;23;20541;-82
2021/07/05 08:54:28;;;;;;;11.03;9.77;;;20.40;98.30;;;;;;5129656;23;20456;-82
2021/07/05 08:56:31;;;;;;;10.83;9.10;;;20.60;98.30;;;;;;5134826;23;20433;-82
2021/07/05 08:58:36;;;;;;;10.57;9.67;;;20.80;98.30;;;;;;5128610;23;20422;-82
2021/07/05 09:00:39;;;;;;;12.40;11.20;;;20.80;98.30;;;;;;5128683;23;20433;-81
2021/07/05 09:02:43;;;;;;;10.97;10.07;;;20.70;98.30;;;;;;5130394;23;20426;-81
2021/07/05 09:04:49;;;;;;;11.83;10.80;;;20.50;98.30;;;;;;5121792;23;20454;-82
2021/07/05 09:07:03;;;;;;;11.13;10.13;;;20.30;98.30;;;;;;5122479;23;20445;-82
2021/07/05 09:09:12;;;;;;;12.60;11.30;;;20.30;98.30;;;;;;5120704;23;20756;-82
2021/07/05 09:11:18;;;;;;;13.00;11.63;;;20.20;98.30;;;;;;5121510;23;20445;-82
2021/07/05 09:13:23;;;;;;;14.40;12.20;;;20.00;98.30;;;;;;5120494;23;20979;-80
2021/07/05 09:15:36;;;;;;;15.43;11.30;;;20.10;98.30;;;;;;5121281;23;20481;-82
2021/07/05 09:17:41;;;;;;;12.53;11.30;;;20.10;98.30;;;;;;5122712;23;20429;-82
2021/07/05 09:19:44;;;;;;;12.83;11.40;;;20.20;98.30;;;;;;5122124;23;20807;-82
2021/07/05 09:21:51;;;;;;;12.30;11.10;;;20.20;98.30;;;;;;5122276;23;20430;-82
2021/07/05 09:24:01;;;;;;;12.53;11.30;;;20.30;98.30;;;;;;5122009;23;20536;-82
2021/07/05 09:26:04;;;;;;;11.50;10.50;;;20.20;98.30;;;;;;5122403;23;20445;-82
2021/07/05 09:28:07;;;;;;;12.87;11.57;;;20.20;98.30;;;;;;5122050;23;20436;-81
2021/07/05 09:30:12;;;;;;;15.33;11.40;;;20.20;98.30;;;;;;5123452;23;20430;-82
2021/07/05 09:32:24;;;;;;;11.07;10.10;;;20.40;98.30;;;;;;5130584;23;20492;-82
2021/07/05 09:34:30;;;;;;;11.00;10.00;;;20.80;98.30;;;;;;5121162;23;20458;-82
2021/07/05 09:36:33;;;;;;;10.53;9.63;;;21.20;98.30;;;;;;5122277;23;20410;-82
2021/07/05 09:38:41;;;;;;;11.87;10.87;;;21.30;98.30;;;;;;5120471;23;20851;-81
2021/07/05 09:40:44;;;;;;;11.30;10.20;;;21.10;98.30;;;;;;5125853;23;20417;-81
2021/07/05 09:42:48;;;;;;;11.23;10.23;;;21.00;98.30;;;;;;5122359;23;20426;-82
2021/07/05 09:44:51;;;;;;;11.57;10.47;;;21.20;98.30;;;;;;5127740;23;20422;-81
2021/07/05 09:46:56;;;;;;;13.27;11.47;;;21.20;98.30;;;;;;5126057;23;20429;-80
2021/07/05 09:49:09;;;;;;;12.93;11.50;;;21.00;98.30;;;;;;5127576;23;20781;-80
2021/07/05 09:51:17;;;;;;;14.00;12.07;;;20.70;98.30;;;;;;5123698;23;20474;-82
2021/07/05 09:53:28;;;;;;;12.87;11.60;;;20.60;98.30;;;;;;5127790;23;20537;-82
2021/07/05 09:55:34;;;;;;;12.23;11.10;;;20.60;98.30;;;;;;5122290;23;20590;-82
2021/07/05 09:57:46;;;;;;;11.87;10.77;;;20.70;98.30;;;;;;5125724;23;20414;-82
2021/07/05 09:59:51;;;;;;;12.40;11.20;;;20.80;98.30;;;;;;5129682;23;20441;-80
2021/07/05 10:01:55;;;;;;;12.70;11.37;;;20.90;98.30;;;;;;5139143;23;20422;-81
2021/07/05 10:04:04;;;;;;;12.20;11.00;;;21.10;98.30;;;;;;5127738;23;20458;-80
2021/07/05 10:06:18;;;;;;;12.97;11.13;;;21.30;98.30;;;;;;5122540;23;20500;-82
2021/07/05 10:08:21;;;;;;;11.87;10.30;;;21.60;98.30;;;;;;5127747;23;20430;-81
2021/07/05 10:10:24;;;;;;;12.00;10.73;;;22.00;98.30;;;;;;5126635;23;20434;-82
2021/07/05 10:12:31;;;;;;;12.00;10.93;;;22.20;98.30;;;;;;5132518;23;20425;-81
2021/07/05 10:14:33;;;;;;;10.60;9.70;;;22.10;98.30;;;;;;5124019;23;21030;-82
2021/07/05 10:16:37;;;;;;;11.30;9.37;;;22.10;98.30;;;;;;5125322;23;20454;-81
2021/07/05 10:18:42;;;;;;;10.77;9.80;;;22.20;98.30;;;;;;5121204;23;20433;-82
2021/07/05 10:20:47;;;;;;;12.13;10.67;;;22.20;98.30;;;;;;5119807;23;20418;-81
2021/07/05 10:22:52;;;;;;;12.77;11.40;;;22.10;98.30;;;;;;5120107;23;20419;-82
2021/07/05 10:24:56;;;;;;;11.13;10.20;;;22.10;98.30;;;;;;5118806;23;20426;-82
2021/07/05 10:26:59;;;;;;;10.47;9.57;;;22.30;98.30;;;;;;5118405;23;20441;-82
2021/07/05 10:29:05;;;;;;;11.10;10.20;;;22.50;98.30;;;;;;5118908;23;20816;-82
2021/07/05 10:31:08;;;;;;;9.80;9.00;;;22.50;98.30;;;;;;5119103;23;20746;-81
2021/07/05 15:27:20;;;;;;;6.50;5.93;;;22.30;98.30;;;;;;5174715;23;20426;-85
2021/07/05 15:29:23;;;;;;;7.30;6.60;;;22.30;98.30;;;;;;5176447;23;20760;-84
2021/07/05 15:31:26;;;;;;;7.23;6.63;;;22.30;98.30;;;;;;5176141;23;20916;-84
2021/07/05 15:33:29;;;;;;;7.57;6.90;;;22.30;98.30;;;;;;5176621;22;20964;-85
2021/07/05 15:35:34;;;;;;;11.50;10.40;;;22.40;98.30;;;;;;5176027;23;20461;-84
2021/07/05 15:37:37;;;;;;;6.63;6.00;;;22.40;98.30;;;;;;5176185;23;20421;-84
2021/07/05 15:39:40;;;;;;;6.03;5.53;;;22.40;98.30;;;;;;5167876;23;20820;-85
2021/07/05 15:41:43;;;;;;;7.20;6.60;;;22.40;98.30;;;;;;5176226;23;20481;-84
2021/07/05 15:43:48;;;;;;;7.67;6.87;;;22.30;98.30;;;;;;5168466;22;20535;-85
2021/07/05 15:45:52;;;;;;;6.53;5.90;;;22.30;98.30;;;;;;5176736;23;20446;-84
2021/07/05 15:47:55;;;;;;;8.13;7.33;;;22.30;98.30;;;;;;5177492;23;20428;-84
2021/07/05 15:49:58;;;;;;;6.37;5.70;;;22.40;98.30;;;;;;5167681;23;20442;-83
2021/07/05 15:52:01;;;;;;;6.40;5.80;;;22.40;98.30;;;;;;5175557;23;20459;-83
2021/07/05 15:54:04;;;;;;;6.47;5.87;;;22.50;98.30;;;;;;5174424;22;20450;-83
2021/07/05 15:56:10;;;;;;;7.80;7.00;;;22.40;98.30;;;;;;5165384;23;20471;-83
2021/07/05 15:58:13;;;;;;;5.57;5.17;;;22.50;98.30;;;;;;5166402;23;20455;-84
2021/07/05 16:00:19;;;;;;;6.60;6.10;;;22.20;98.30;;;;;;5167104;23;20437;-83
2021/07/05 16:02:22;;;;;;;6.57;5.90;;;22.00;98.30;;;;;;5167343;23;20420;-83
2021/07/05 16:04:25;;;;;;;6.13;5.50;;;21.90;98.30;;;;;;5174807;22;20507;-83
2021/07/05 16:06:28;;;;;;;7.13;6.50;;;22.00;98.30;;;;;;5173744;23;20507;-82
2021/07/05 16:08:31;;;;;;;7.40;6.70;;;22.10;98.30;;;;;;5165035;23;20434;-83
2021/07/05 16:10:34;;;;;;;12.33;10.60;;;22.30;98.30;;;;;;5175500;23;20426;-83
2021/07/05 16:12:37;;;;;;;6.67;5.97;;;22.50;98.30;;;;;;5167160;23;20762;-83
2021/07/05 16:14:40;;;;;;;7.77;7.07;;;22.30;98.30;;;;;;5166938;22;21142;-83
2021/07/05 16:16:45;;;;;;;8.10;7.40;;;22.10;98.30;;;;;;5166597;23;20530;-83
2021/07/05 16:18:48;;;;;;;7.17;6.57;;;21.70;98.30;;;;;;5166404;23;20489;-83
2021/07/05 16:20:52;;;;;;;7.50;6.90;;;21.50;98.30;;;;;;5166451;23;20442;-83
2021/07/05 16:22:55;;;;;;;7.63;6.80;;;21.40;98.30;;;;;;5166541;23;20470;-83
2021/07/05 16:24:58;;;;;;;7.47;6.77;;;21.40;98.30;;;;;;5168524;22;20451;-83
2021/07/05 16:27:01;;;;;;;7.17;6.57;;;21.50;98.30;;;;;;5176963;23;20420;-83
2021/07/05 16:29:04;;;;;;;7.80;7.20;;;21.60;98.30;;;;;;5174902;23;20435;-83
2021/07/05 16:31:06;;;;;;;7.13;6.53;;;21.60;98.30;;;;;;5174975;23;20419;-83
2021/07/05 16:33:13;;;;;;;7.43;6.73;;;21.60;98.30;;;;;;5166132;22;20463;-83
2021/07/05 16:35:16;;;;;;;7.80;6.80;;;21.50;98.30;;;;;;5167309;23;20412;-83
2021/07/05 16:37:20;;;;;;;7.10;6.40;;;21.50;98.30;;;;;;5174885;23;20784;-83
2021/07/05 16:39:23;;;;;;;7.57;6.97;;;21.60;98.30;;;;;;5174623;23;20960;-83
2021/07/05 16:41:26;;;;;;;7.27;6.67;;;21.50;98.30;;;;;;5174819;23;20909;-83
2021/07/05 16:43:31;;;;;;;7.50;6.90;;;21.70;98.30;;;;;;5176945;22;20450;-83
2021/07/05 16:45:34;;;;;;;8.90;8.00;;;21.90;98.30;;;;;;5174907;23;20408;-83
2021/07/05 16:47:40;;;;;;;7.97;7.20;;;21.90;98.30;;;;;;5174592;23;20427;-83
2021/07/05 16:49:46;;;;;;;8.23;7.40;;;22.00;98.30;;;;;;5174731;23;20808;-83
2021/07/05 16:52:01;;;;;;;8.53;7.63;;;22.00;98.30;;;;;;5166274;23;20420;-83